createdAt,value
2019-06-07T00:00:41.939Z,98180.17
2019-06-07T00:03:46.432Z,98176.16
2019-06-07T00:06:50.871Z,98171.31
2019-06-07T00:09:55.325Z,98170.25
2019-06-07T00:13:00.048Z,98171.50
2019-06-07T00:16:05.092Z,98170.27
2019-06-07T00:19:09.639Z,98168.63
2019-06-07T00:22:23.784Z,98150.13
2019-06-07T00:25:24.300Z,98151.17
2019-06-07T00:28:27.146Z,98146.38
2019-06-07T00:31:31.919Z,98137.99
2019-06-07T00:34:36.372Z,98138.09
2019-06-07T00:37:40.897Z,98129.41
2019-06-07T00:40:45.345Z,98123.98
2019-06-07T00:43:49.799Z,98118.59
2019-06-07T00:46:54.245Z,98113.34
2019-06-07T00:49:58.687Z,98115.63
2019-06-07T00:53:28.775Z,98116.50
2019-06-07T00:56:09.298Z,98115.22
2019-06-07T00:59:16.238Z,98118.27
2019-06-07T01:02:24.719Z,98115.35
2019-06-07T01:05:31.296Z,98109.70
2019-06-07T01:08:32.878Z,98105.14
2019-06-07T01:11:37.325Z,98113.16
2019-06-07T01:14:41.798Z,98115.35
2019-06-07T01:18:25.888Z,98115.10
2019-06-07T01:20:52.413Z,98100.31
2019-06-07T01:24:11.490Z,98101.89
2019-06-07T01:27:03.039Z,98102.70
2019-06-07T01:30:12.964Z,98107.09
2019-06-07T01:33:18.328Z,98113.80
2019-06-07T01:36:28.513Z,98103.08
2019-06-07T01:39:31.514Z,98107.34
2019-06-07T01:42:35.449Z,98107.30
2019-06-07T01:45:39.906Z,98107.09
2019-06-07T01:48:49.524Z,98101.38
2019-06-07T01:51:50.521Z,98103.00
2019-06-07T01:54:58.653Z,98112.91
2019-06-07T01:58:01.480Z,98114.11
2019-06-07T02:01:05.921Z,98113.34
2019-06-07T02:04:10.434Z,98105.88
2019-06-07T02:07:14.882Z,98100.45
2019-06-07T02:10:24.062Z,98103.04
2019-06-07T02:13:28.874Z,98105.67
2019-06-07T02:16:32.690Z,98106.53
2019-06-07T02:19:37.242Z,98105.43
2019-06-07T02:22:43.336Z,98098.23
2019-06-07T02:25:50.465Z,98092.59
2019-06-07T02:28:53.956Z,98084.25
2019-06-07T02:31:58.417Z,98085.75
2019-06-07T02:35:03.164Z,98080.84
2019-06-07T02:38:07.573Z,98084.95
2019-06-07T02:41:12.033Z,98075.67
2019-06-07T02:44:16.472Z,98080.67
2019-06-07T02:47:22.600Z,98078.44
2019-06-07T02:50:30.346Z,98067.88
2019-06-07T02:53:38.382Z,98065.20
2019-06-07T02:56:56.682Z,98065.41
2019-06-07T03:00:07.054Z,98056.81
2019-06-07T03:02:52.139Z,98053.44
2019-06-07T03:05:57.731Z,98052.17
2019-06-07T03:09:02.782Z,98055.36
2019-06-07T03:12:07.973Z,98049.22
2019-06-07T03:15:32.134Z,98053.23
2019-06-07T03:18:28.727Z,98056.00
2019-06-07T03:21:36.511Z,98053.70
2019-06-07T03:24:44.093Z,98042.13
2019-06-07T03:27:50.419Z,98043.12
2019-06-07T03:31:02.421Z,98035.64
2019-06-07T03:34:01.342Z,98036.97
2019-06-07T03:37:05.791Z,98029.46
2019-06-07T03:40:10.681Z,98027.49
2019-06-07T03:43:15.125Z,98026.97
2019-06-07T03:46:19.581Z,98014.02
2019-06-07T03:49:24.021Z,98012.16
2019-06-07T03:52:30.132Z,98013.78
2019-06-07T03:55:37.775Z,98008.94
2019-06-07T03:58:49.855Z,98012.73
2019-06-07T04:01:47.385Z,98021.62
2019-06-07T04:04:51.830Z,98015.15
2019-06-07T04:07:56.289Z,98020.59
2019-06-07T04:11:00.968Z,98024.84
2019-06-07T04:14:05.541Z,98021.45
2019-06-07T04:17:09.994Z,98018.78
2019-06-07T04:20:14.501Z,98009.11
2019-06-07T04:23:27.877Z,98005.51
2019-06-07T04:26:25.413Z,97996.14
2019-06-07T04:29:33.912Z,98000.31
2019-06-07T04:32:39.038Z,98000.08
2019-06-07T04:35:45.234Z,97989.26
2019-06-07T04:38:50.681Z,97987.08
2019-06-07T04:41:56.841Z,97973.60
2019-06-07T04:45:01.476Z,97972.94
2019-06-07T04:48:08.102Z,97973.56
2019-06-07T04:51:15.054Z,97974.30
2019-06-07T04:54:19.747Z,97968.16
2019-06-07T04:57:24.219Z,97963.53
2019-06-07T05:01:01.430Z,97961.96
2019-06-07T05:03:44.601Z,97967.63
2019-06-07T05:06:49.081Z,97962.86
2019-06-07T05:09:53.548Z,97964.63
2019-06-07T05:12:57.993Z,97964.93
2019-06-07T05:16:02.443Z,97958.10
2019-06-07T05:19:06.895Z,97964.02
2019-06-07T05:22:11.403Z,97962.42
2019-06-07T05:25:17.013Z,97970.09
2019-06-07T05:28:21.475Z,97963.36
2019-06-07T05:31:26.099Z,97974.67
2019-06-07T05:34:32.234Z,97972.72
2019-06-07T05:37:38.210Z,97972.80
2019-06-07T05:40:48.728Z,97970.67
2019-06-07T05:44:11.274Z,97964.85
2019-06-07T05:46:56.804Z,97966.13
2019-06-07T05:50:01.285Z,97965.30
2019-06-07T05:53:06.862Z,97957.58
2019-06-07T05:56:12.906Z,97953.88
2019-06-07T05:59:17.959Z,97952.73
2019-06-07T06:02:24.568Z,97950.19
2019-06-07T06:05:34.270Z,97943.19
2019-06-07T06:08:36.593Z,97937.27
2019-06-07T06:11:52.148Z,97933.28
2019-06-07T06:14:47.228Z,97925.29
2019-06-07T06:17:53.886Z,97928.39
2019-06-07T06:21:16.203Z,97927.09
2019-06-07T06:24:04.127Z,97922.52
2019-06-07T06:27:41.539Z,97920.14
2019-06-07T06:30:15.682Z,97915.23
2019-06-07T06:33:33.284Z,97918.29
2019-06-07T06:36:26.307Z,97915.58
2019-06-07T06:39:30.777Z,97914.52
2019-06-07T06:42:35.275Z,97917.78
2019-06-07T06:45:40.241Z,97915.92
2019-06-07T06:48:48.294Z,97912.85
2019-06-07T06:51:53.605Z,97910.48
2019-06-07T06:55:00.821Z,97904.53
2019-06-07T06:58:03.679Z,97907.13
2019-06-07T07:01:08.125Z,97906.00
2019-06-07T07:04:13.890Z,97906.13
2019-06-07T07:07:18.717Z,97899.79
2019-06-07T07:10:43.096Z,97888.00
2019-06-07T07:13:49.871Z,97881.76
2019-06-07T07:16:56.681Z,97880.48
2019-06-07T07:20:00.573Z,97865.52
2019-06-07T07:23:05.627Z,97857.47
2019-06-07T07:26:10.095Z,97860.05
2019-06-07T07:29:14.535Z,97861.00
2019-06-07T07:32:19.308Z,97862.05
2019-06-07T07:35:23.763Z,97858.14
2019-06-07T07:38:28.209Z,97858.97
2019-06-07T07:41:32.726Z,97847.69
2019-06-07T07:44:37.171Z,97839.80
2019-06-07T07:47:58.380Z,97826.38
2019-06-07T07:50:51.445Z,97822.28
2019-06-07T07:54:09.056Z,97815.84
2019-06-07T07:57:00.430Z,97803.73
2019-06-07T08:00:48.861Z,97804.56
2019-06-07T08:03:13.322Z,97794.16
2019-06-07T08:06:18.017Z,97787.58
2019-06-07T08:09:22.445Z,97778.83
2019-06-07T08:12:26.895Z,97763.73
2019-06-07T08:15:31.529Z,97756.00
2019-06-07T08:18:36.037Z,97752.95
2019-06-07T08:21:40.475Z,97754.50
2019-06-07T08:24:44.909Z,97756.95
2019-06-07T08:27:49.682Z,97751.92
2019-06-07T08:31:02.427Z,97753.39
2019-06-07T08:34:00.872Z,97732.56
2019-06-07T08:37:05.918Z,97738.75
2019-06-07T08:40:13.700Z,97725.82
2019-06-07T08:43:20.991Z,97729.22
2019-06-07T08:46:24.336Z,97725.33
2019-06-07T08:49:28.780Z,97719.31
2019-06-07T08:52:33.230Z,97715.63
2019-06-07T08:55:37.983Z,97718.54
2019-06-07T08:58:42.440Z,97714.81
2019-06-07T09:01:46.884Z,97715.37
2019-06-07T09:04:54.697Z,97709.81
2019-06-07T09:08:21.751Z,97709.69
2019-06-07T09:11:10.223Z,97704.47
2019-06-07T09:14:10.157Z,97703.41
2019-06-07T09:17:14.790Z,97700.38
2019-06-07T09:20:36.550Z,97689.89
2019-06-07T09:23:27.592Z,97675.43
2019-06-07T09:26:32.225Z,97668.09
2019-06-07T09:29:37.601Z,97677.13
2019-06-07T09:32:42.048Z,97674.48
2019-06-07T09:35:46.506Z,97663.52
2019-06-07T09:38:51.598Z,97664.50
2019-06-07T09:41:56.519Z,97662.00
2019-06-07T09:45:08.185Z,97655.48
2019-06-07T09:48:13.701Z,97654.40
2019-06-07T09:51:19.877Z,97644.55
2019-06-07T09:57:28.137Z,97635.88
2019-06-07T10:00:40.863Z,97626.52
2019-06-07T10:03:39.120Z,97623.94
2019-06-07T10:06:48.093Z,97621.12
2019-06-07T10:12:59.523Z,97614.69
2019-06-07T10:16:04.808Z,97614.64
2019-06-07T10:19:09.899Z,97614.95
2019-06-07T10:22:14.539Z,97611.52
2019-06-07T10:25:18.991Z,97608.86
2019-06-07T10:28:23.518Z,97609.86
2019-06-07T10:31:27.965Z,97608.59
2019-06-07T10:34:32.418Z,97598.41
2019-06-07T10:37:36.888Z,97605.34
2019-06-07T10:40:42.577Z,97602.41
2019-06-07T10:43:47.033Z,97603.91
2019-06-07T10:46:51.744Z,97597.09
2019-06-07T10:49:56.274Z,97596.48
2019-06-07T10:53:02.287Z,97578.45
2019-06-07T10:56:07.114Z,97579.87
2019-06-07T10:59:11.998Z,97574.00
2019-06-07T11:02:17.880Z,97557.84
2019-06-07T11:05:22.510Z,97557.05
2019-06-07T11:08:26.963Z,97557.22
2019-06-07T11:11:31.406Z,97562.03
2019-06-07T11:14:36.170Z,97552.82
2019-06-07T11:17:40.895Z,97552.27
2019-06-07T11:20:45.622Z,97542.33
2019-06-07T11:23:50.461Z,97541.86
2019-06-07T11:26:54.897Z,97535.62
2019-06-07T11:29:59.610Z,97534.03
2019-06-07T11:33:04.341Z,97535.63
2019-06-07T11:36:08.784Z,97526.83
2019-06-07T11:39:13.246Z,97512.91
2019-06-07T11:42:20.064Z,97519.59
2019-06-07T11:45:24.204Z,97513.27
2019-06-07T11:48:28.653Z,97507.64
2019-06-07T11:51:34.018Z,97500.98
2019-06-07T11:54:38.465Z,97497.10
2019-06-07T11:57:42.922Z,97493.59
2019-06-07T12:00:47.501Z,97491.02
2019-06-07T12:03:52.378Z,97489.45
2019-06-07T12:06:56.838Z,97486.50
2019-06-07T12:10:01.283Z,97477.26
2019-06-07T12:13:05.795Z,97482.38
2019-06-07T12:16:11.262Z,97469.40
2019-06-07T12:19:15.893Z,97462.69
2019-06-07T12:22:20.485Z,97462.66
2019-06-07T12:25:25.302Z,97457.91
2019-06-07T12:28:29.832Z,97455.12
2019-06-07T12:31:34.265Z,97450.18
2019-06-07T12:34:39.058Z,97439.70
2019-06-07T12:37:44.868Z,97430.45
2019-06-07T12:40:57.464Z,97434.31
2019-06-07T12:43:59.111Z,97425.05
2019-06-07T12:47:02.177Z,97428.34
2019-06-07T12:50:08.333Z,97425.20
2019-06-07T12:53:13.581Z,97418.92
2019-06-07T12:56:18.198Z,97423.61
2019-06-07T12:59:24.203Z,97410.98
2019-06-07T13:02:28.808Z,97405.98
2019-06-07T13:05:33.448Z,97384.80
2019-06-07T13:08:38.226Z,97387.55
2019-06-07T13:11:42.742Z,97378.66
2019-06-07T13:14:47.251Z,97382.21
2019-06-07T13:17:51.742Z,97377.52
2019-06-07T13:20:56.458Z,97378.70
2019-06-07T13:24:01.052Z,97365.92
2019-06-07T13:27:05.653Z,97366.61
2019-06-07T13:30:11.371Z,97365.73
2019-06-07T13:33:16.834Z,97364.87
2019-06-07T13:36:22.416Z,97362.53
2019-06-07T13:39:29.710Z,97362.24
2019-06-07T13:42:35.222Z,97349.50
2019-06-07T13:45:39.670Z,97347.66
2019-06-07T13:48:44.261Z,97337.71
2019-06-07T13:51:48.921Z,97344.06
2019-06-07T13:54:53.384Z,97331.73
2019-06-07T13:57:57.841Z,97329.69
2019-06-07T14:01:02.296Z,97331.52
2019-06-07T14:04:06.769Z,97325.39
2019-06-07T14:07:11.208Z,97326.54
2019-06-07T14:10:17.106Z,97316.84
2019-06-07T14:13:21.931Z,97317.43
2019-06-07T14:16:26.405Z,97314.34
2019-06-07T14:19:31.018Z,97310.36
2019-06-07T14:22:35.789Z,97310.92
2019-06-07T14:25:40.247Z,97303.41
2019-06-07T14:28:44.698Z,97306.45
2019-06-07T14:31:49.151Z,97300.70
2019-06-07T14:34:53.602Z,97292.96
2019-06-07T14:37:58.056Z,97284.36
2019-06-07T14:41:02.859Z,97290.07
2019-06-07T14:44:07.299Z,97290.02
2019-06-07T14:47:11.760Z,97290.30
2019-06-07T14:50:17.413Z,97286.52
2019-06-07T14:53:21.881Z,97298.53
2019-06-07T14:56:27.178Z,97304.31
2019-06-07T14:59:32.732Z,97301.78
2019-06-07T15:02:38.394Z,97316.97
2019-06-07T15:05:43.668Z,97312.32
2019-06-07T15:08:51.345Z,97308.91
2019-06-07T15:11:54.293Z,97308.88
2019-06-07T15:14:58.737Z,97313.34
2019-06-07T15:18:03.369Z,97311.24
2019-06-07T15:21:08.154Z,97304.53
2019-06-07T15:24:12.887Z,97293.05
2019-06-07T15:27:17.473Z,97295.59
2019-06-07T15:30:23.011Z,97302.45
2019-06-07T15:33:27.889Z,97308.73
2019-06-07T15:36:32.406Z,97315.59
2019-06-07T15:39:37.140Z,97323.32
2019-06-07T15:42:52.058Z,97330.47
2019-06-07T15:45:47.783Z,97335.54
2019-06-07T15:48:52.559Z,97340.08
2019-06-07T15:51:57.289Z,97343.94
2019-06-07T15:55:01.733Z,97337.97
2019-06-07T15:58:06.443Z,97338.17
2019-06-07T16:01:11.174Z,97341.19
2019-06-07T16:04:15.634Z,97338.76
2019-06-07T16:07:20.083Z,97336.40
2019-06-07T16:10:25.138Z,97337.17
2019-06-07T16:13:29.588Z,97337.47
2019-06-07T16:16:35.062Z,97334.83
2019-06-07T16:19:42.981Z,97348.66
2019-06-07T16:22:45.751Z,97375.14
2019-06-07T16:25:50.456Z,97385.06
2019-06-07T16:28:57.256Z,97395.17
2019-06-07T16:32:01.350Z,97392.73
2019-06-07T16:35:08.267Z,97401.27
2019-06-07T16:38:13.061Z,97408.14
2019-06-07T16:41:17.523Z,97413.87
2019-06-07T16:44:21.974Z,97421.34
2019-06-07T16:47:26.433Z,97420.31
2019-06-07T16:50:30.925Z,97423.84
2019-06-07T16:53:36.174Z,97436.39
2019-06-07T16:56:45.331Z,97437.19
2019-06-07T16:59:49.188Z,97460.10
2019-06-07T17:02:53.373Z,97504.52
2019-06-07T17:05:57.816Z,97542.71
2019-06-07T17:09:02.269Z,97546.10
2019-06-07T17:12:06.728Z,97540.36
2019-06-07T17:15:14.276Z,97540.03
2019-06-07T17:18:18.738Z,97550.92
2019-06-07T17:21:23.181Z,97559.63
2019-06-07T17:24:28.123Z,97568.28
2019-06-07T17:27:32.575Z,97612.37
2019-06-07T17:30:37.023Z,97627.19
2019-06-07T17:33:41.954Z,97642.38
2019-06-07T17:36:46.516Z,97673.19
2019-06-07T17:39:51.260Z,97689.89
2019-06-07T17:42:55.705Z,97701.73
2019-06-07T17:46:00.162Z,97725.19
2019-06-07T17:49:04.772Z,97729.02
2019-06-07T17:52:09.234Z,97754.57
2019-06-07T17:55:14.522Z,97767.83
2019-06-07T17:58:18.997Z,97786.62
2019-06-07T18:01:23.511Z,97794.03
2019-06-07T18:04:27.947Z,97789.70
2019-06-07T18:07:32.941Z,97825.20
2019-06-07T18:10:41.011Z,97855.00
2019-06-07T18:13:46.029Z,97873.63
2019-06-07T18:16:50.628Z,97887.08
2019-06-07T18:19:55.299Z,97887.70
2019-06-07T18:22:59.749Z,97893.35
2019-06-07T18:26:04.208Z,97906.11
2019-06-07T18:29:08.645Z,97919.53
2019-06-07T18:32:13.711Z,97909.53
2019-06-07T18:35:18.673Z,97925.91
2019-06-07T18:38:23.387Z,97929.39
2019-06-07T18:41:27.823Z,97931.39
2019-06-07T18:44:32.546Z,97955.92
2019-06-07T18:47:36.984Z,97957.23
2019-06-07T18:50:41.513Z,97978.75
2019-06-07T18:53:45.960Z,98007.34
2019-06-07T18:56:50.742Z,98023.90
2019-06-07T18:59:56.585Z,98028.44
2019-06-07T19:03:01.066Z,98042.73
2019-06-07T19:06:05.525Z,98040.04
2019-06-07T19:09:10.304Z,98048.84
2019-06-07T19:12:14.753Z,98053.32
2019-06-07T19:15:22.541Z,98072.00
2019-06-07T19:18:27.248Z,98058.77
2019-06-07T19:21:32.498Z,98070.90
2019-06-07T19:24:37.343Z,98062.94
2019-06-07T19:27:41.795Z,98084.97
2019-06-07T19:30:46.247Z,98103.93
2019-06-07T19:33:51.066Z,98109.53
2019-06-07T19:36:55.698Z,98134.09
2019-06-07T19:40:00.572Z,98165.94
2019-06-07T19:43:05.047Z,98197.75
2019-06-07T19:46:09.470Z,98217.63
2019-06-07T19:49:13.926Z,98219.00
2019-06-07T19:52:18.374Z,98205.74
2019-06-07T19:55:22.827Z,98191.09
2019-06-07T19:58:27.303Z,98197.14
2019-06-07T20:01:31.754Z,98205.69
2019-06-07T20:04:36.237Z,98215.47
2019-06-07T20:07:41.846Z,98222.67
2019-06-07T20:10:46.313Z,98244.91
2019-06-07T20:13:50.780Z,98252.01
2019-06-07T20:16:55.269Z,98257.88
2019-06-07T20:20:00.483Z,98266.01
2019-06-07T20:23:05.378Z,98262.33
2019-06-07T20:26:11.043Z,98267.20
2019-06-07T20:29:25.844Z,98272.50
2019-06-07T20:32:21.762Z,98266.89
2019-06-07T20:35:26.221Z,98269.56
2019-06-07T20:38:30.676Z,98276.80
2019-06-07T20:41:35.138Z,98278.47
2019-06-07T20:44:39.596Z,98279.44
2019-06-07T20:47:44.038Z,98288.84
2019-06-07T20:50:48.505Z,98286.70
2019-06-07T20:53:52.963Z,98309.05
2019-06-07T20:56:58.805Z,98303.08
2019-06-07T21:00:13.693Z,98281.88
2019-06-07T21:03:11.231Z,98265.47
2019-06-07T21:06:15.679Z,98298.36
2019-06-07T21:09:20.187Z,98297.98
2019-06-07T21:12:24.636Z,98297.11
2019-06-07T21:15:29.091Z,98298.04
2019-06-07T21:18:33.534Z,98278.32
2019-06-07T21:21:37.993Z,98277.06
2019-06-07T21:24:42.450Z,98271.10
2019-06-07T21:27:46.894Z,98270.59
2019-06-07T21:30:51.596Z,98274.89
2019-06-07T21:33:56.078Z,98295.91
2019-06-07T21:37:01.691Z,98306.49
2019-06-07T21:40:08.218Z,98318.88
2019-06-07T21:43:12.910Z,98311.91
2019-06-07T21:46:20.553Z,98313.98
2019-06-07T21:49:23.774Z,98311.14
2019-06-07T21:52:28.492Z,98292.23
2019-06-07T21:55:33.237Z,98304.37
2019-06-07T21:58:37.954Z,98312.41
2019-06-07T22:01:42.406Z,98320.31
2019-06-07T22:04:46.855Z,98335.21
2019-06-07T22:07:51.298Z,98344.87
2019-06-07T22:10:55.748Z,98352.34
2019-06-07T22:14:00.186Z,98351.33
2019-06-07T22:17:04.629Z,98339.68
2019-06-07T22:20:10.786Z,98331.30
2019-06-07T22:23:15.479Z,98340.53
2019-06-07T22:26:19.922Z,98370.10
2019-06-07T22:29:24.652Z,98393.08
2019-06-07T22:32:29.094Z,98403.09
2019-06-07T22:35:33.554Z,98401.82
2019-06-07T22:38:38.014Z,98422.41
2019-06-07T22:41:42.479Z,98426.60
2019-06-07T22:44:47.211Z,98426.80
2019-06-07T22:47:51.661Z,98416.57
2019-06-07T22:50:57.788Z,98395.91
2019-06-07T22:54:02.260Z,98390.68
2019-06-07T22:57:12.013Z,98395.03
2019-06-07T23:00:19.393Z,98385.19
2019-06-07T23:03:22.908Z,98409.05
2019-06-07T23:06:27.680Z,98416.41
2019-06-07T23:09:32.513Z,98410.84
2019-06-07T23:12:36.961Z,98405.16
2019-06-07T23:15:41.866Z,98398.59
2019-06-07T23:18:46.308Z,98399.80
2019-06-07T23:21:51.124Z,98415.77
2019-06-07T23:24:55.558Z,98398.33
2019-06-07T23:28:00.089Z,98402.09
2019-06-07T23:31:04.535Z,98402.97
2019-06-07T23:34:08.973Z,98393.86
2019-06-07T23:37:13.427Z,98400.66
2019-06-07T23:40:19.567Z,98417.39
2019-06-07T23:43:24.360Z,98396.57
2019-06-07T23:46:28.803Z,98410.48
2019-06-07T23:49:33.244Z,98412.90
2019-06-07T23:52:37.691Z,98406.56
2019-06-07T23:55:42.135Z,98396.97
2019-06-07T23:58:46.587Z,98395.99
